Main page
METAR-TAF:

METAR-TAF

Airports :

Inverness Airport

Inverness, Scotland

latitude: 57-32N, longitude: 004-03W, elevation: 9 m

Current weather observation

The report was made 18 minutes ago, at 23:50 UTC
Wind 3 kt from the East
Temperature 0°C
Humidity 86%
Pressure 1009 hPa
Visibility 10 km or more

METAR: EGPE 272350Z AUTO 08003KT 9999 NCD M00/M02 Q1009

Time: 00:08 (00:08 UTC)

Forecast

The report was made 1 hour and 11 minutes ago, at 22:57 UTC
Forecast valid from 28 at 00 UTC to 28 at 09 UTC
Wind 5 kt from the East/Northeast
Visibility 10 km or more
Scattered clouds at a height of 3500 ft

TAF: EGPE 272257Z 2800/2809 07005KT 9999 SCT035

Weather observations and forecasts of more than 4000 airports (METAR and TAF reports).

The available stations are represented by yellow and red dots on the map.

Hover mouse over dot to see the name of the station.

Then click to see weather observations and forecasts.

To change the map : click on the green buttons with a black cross to zoom in, on the green button with a dash to zoom out, or on the green arrows for adjacent maps.


METAR-TAF: